createdAt,value
2022-11-30T00:01:59.423Z,14.03
2022-11-30T00:04:32.970Z,15.10
2022-11-30T00:07:01.143Z,14.70
2022-11-30T00:09:30.434Z,14.93
2022-11-30T00:11:59.908Z,13.97
2022-11-30T00:14:30.035Z,14.53
2022-11-30T00:16:58.366Z,15.50
2022-11-30T00:19:26.508Z,15.50
2022-11-30T00:21:56.480Z,14.07
2022-11-30T00:24:25.043Z,16.40
2022-11-30T00:26:53.775Z,13.90
2022-11-30T00:29:21.969Z,14.70
2022-11-30T00:31:52.117Z,14.90
2022-11-30T00:34:20.989Z,15.60
2022-11-30T00:36:48.886Z,14.50
2022-11-30T00:39:20.871Z,15.00
2022-11-30T00:41:49.539Z,14.47
2022-11-30T00:44:17.804Z,15.67
2022-11-30T00:46:46.144Z,14.10
2022-11-30T00:49:14.183Z,14.80
2022-11-30T00:51:42.746Z,14.33
2022-11-30T00:54:11.914Z,15.60
2022-11-30T00:56:42.313Z,14.27
2022-11-30T00:59:11.541Z,14.63
2022-11-30T01:01:42.549Z,15.03
2022-11-30T01:04:15.459Z,14.50
2022-11-30T01:06:47.439Z,13.87
2022-11-30T01:09:16.397Z,14.10
2022-11-30T01:11:46.522Z,13.97
2022-11-30T01:14:17.884Z,13.60
2022-11-30T01:16:46.087Z,14.00
2022-11-30T01:19:14.068Z,14.50
2022-11-30T01:21:42.866Z,15.07
2022-11-30T01:24:15.601Z,14.93
2022-11-30T01:26:44.195Z,14.50
2022-11-30T01:29:15.590Z,15.00
2022-11-30T01:31:46.092Z,14.93
2022-11-30T01:34:15.003Z,15.27
2022-11-30T01:36:45.906Z,14.80
2022-11-30T01:39:14.322Z,16.33
2022-11-30T01:41:42.746Z,15.90
2022-11-30T01:45:02.771Z,15.50
2022-11-30T01:47:40.469Z,15.47
2022-11-30T01:50:14.896Z,15.40
2022-11-30T01:52:47.869Z,16.10
2022-11-30T01:55:20.280Z,16.07
2022-11-30T01:57:52.317Z,15.90
2022-11-30T02:00:22.146Z,15.80
2022-11-30T02:03:00.269Z,15.83
2022-11-30T02:05:30.679Z,15.60
2022-11-30T02:08:00.156Z,14.93
2022-11-30T02:10:31.509Z,14.47
2022-11-30T02:13:31.331Z,14.40
2022-11-30T02:16:07.956Z,13.57
2022-11-30T02:18:47.158Z,15.00
2022-11-30T02:21:20.993Z,14.97
2022-11-30T02:24:22.071Z,14.70
2022-11-30T02:27:09.506Z,15.33
2022-11-30T02:29:42.695Z,13.53
2022-11-30T02:32:21.403Z,14.47
2022-11-30T02:34:55.304Z,13.00
2022-11-30T02:37:27.432Z,12.90
2022-11-30T02:40:00.422Z,14.10
2022-11-30T02:42:29.200Z,13.90
2022-11-30T02:44:58.798Z,13.93
2022-11-30T02:47:33.513Z,13.20
2022-11-30T02:50:06.615Z,13.23
2022-11-30T02:52:36.695Z,14.43
2022-11-30T02:55:07.476Z,13.27
2022-11-30T02:57:36.770Z,13.77
2022-11-30T03:00:10.797Z,14.83
2022-11-30T03:02:48.495Z,14.70
2022-11-30T03:05:17.958Z,13.10
2022-11-30T03:07:46.174Z,13.53
2022-11-30T03:10:14.277Z,14.30
2022-11-30T03:12:43.178Z,14.70
2022-11-30T03:15:13.995Z,13.30
2022-11-30T03:17:43.194Z,14.10
2022-11-30T03:20:11.714Z,12.80
2022-11-30T03:22:40.024Z,12.23
2022-11-30T03:25:09.646Z,14.20
2022-11-30T03:27:38.296Z,14.73
2022-11-30T03:30:14.468Z,13.40
2022-11-30T03:32:42.788Z,13.60
2022-11-30T03:35:12.233Z,13.70
2022-11-30T03:37:40.186Z,14.57
2022-11-30T03:40:30.702Z,14.60
2022-11-30T03:43:18.611Z,13.60
2022-11-30T03:45:48.655Z,12.87
2022-11-30T03:48:23.643Z,13.57
2022-11-30T03:50:51.784Z,12.97
2022-11-30T03:53:21.414Z,12.50
2022-11-30T03:55:53.561Z,12.30
2022-11-30T03:58:22.283Z,12.70
2022-11-30T04:01:02.142Z,11.77
2022-11-30T04:03:32.138Z,11.90
2022-11-30T04:06:04.396Z,12.30
2022-11-30T04:08:33.102Z,12.77
2022-11-30T04:11:05.082Z,12.47
2022-11-30T04:13:39.850Z,12.30
2022-11-30T04:16:14.088Z,12.70
2022-11-30T04:18:45.102Z,12.67
2022-11-30T04:21:14.560Z,13.53
2022-11-30T04:23:44.194Z,12.67
2022-11-30T04:26:16.741Z,12.60
2022-11-30T04:28:46.488Z,11.47
2022-11-30T04:31:19.643Z,11.40
2022-11-30T04:33:50.476Z,12.90
2022-11-30T04:36:22.004Z,11.70
2022-11-30T04:38:52.083Z,11.33
2022-11-30T04:41:22.413Z,12.90
2022-11-30T04:43:51.045Z,11.83
2022-11-30T04:46:21.341Z,12.97
2022-11-30T04:48:52.271Z,12.10
2022-11-30T04:51:24.084Z,12.23
2022-11-30T04:53:52.379Z,11.60
2022-11-30T04:56:22.680Z,12.73
2022-11-30T04:58:51.634Z,12.50
2022-11-30T05:01:21.500Z,11.97
2022-11-30T05:03:52.198Z,12.87
2022-11-30T05:06:21.296Z,12.13
2022-11-30T05:08:50.540Z,12.17
2022-11-30T05:11:18.737Z,11.47
2022-11-30T05:13:46.653Z,13.50
2022-11-30T05:16:15.068Z,11.23
2022-11-30T05:18:44.791Z,11.67
2022-11-30T05:21:13.819Z,11.87
2022-11-30T05:23:42.389Z,11.23
2022-11-30T05:26:12.724Z,10.40
2022-11-30T05:28:46.385Z,12.07
2022-11-30T05:31:14.658Z,12.57
2022-11-30T05:33:51.405Z,11.03
2022-11-30T05:36:21.554Z,12.53
2022-11-30T05:38:50.604Z,11.40
2022-11-30T05:41:18.674Z,10.67
2022-11-30T05:43:49.208Z,10.83
2022-11-30T05:46:17.625Z,11.00
2022-11-30T05:48:46.911Z,12.37
2022-11-30T05:51:17.339Z,12.77
2022-11-30T05:53:49.225Z,12.57
2022-11-30T05:56:20.639Z,11.73
2022-11-30T05:58:54.438Z,13.03
2022-11-30T06:01:24.274Z,9.80
2022-11-30T06:03:56.692Z,11.53
2022-11-30T06:06:25.046Z,11.17
2022-11-30T06:08:55.521Z,10.70
2022-11-30T06:11:23.476Z,11.20
2022-11-30T06:13:51.845Z,12.03
2022-11-30T06:16:22.560Z,10.90
2022-11-30T06:18:53.644Z,10.90
2022-11-30T06:21:25.131Z,10.17
2022-11-30T06:23:53.474Z,10.43
2022-11-30T06:26:21.698Z,12.07
2022-11-30T06:28:51.553Z,10.40
2022-11-30T06:31:20.152Z,12.20
2022-11-30T06:33:48.464Z,10.67
2022-11-30T06:36:24.435Z,11.20
2022-11-30T06:38:53.002Z,11.80
2022-11-30T06:41:21.143Z,10.60
2022-11-30T06:43:49.411Z,11.40
2022-11-30T06:46:17.600Z,10.37
2022-11-30T06:48:49.740Z,11.63
2022-11-30T06:51:19.987Z,11.40
2022-11-30T06:53:52.642Z,9.70
2022-11-30T06:56:21.124Z,10.33
2022-11-30T06:58:49.502Z,10.73
2022-11-30T07:01:17.665Z,9.93
2022-11-30T07:03:46.065Z,10.03
2022-11-30T07:06:16.042Z,10.60
2022-11-30T07:08:45.509Z,11.10
2022-11-30T07:11:15.771Z,10.10
2022-11-30T07:13:43.853Z,10.10
2022-11-30T07:16:12.851Z,9.83
2022-11-30T07:18:41.306Z,11.27
2022-11-30T07:21:12.878Z,10.97
2022-11-30T07:23:58.512Z,10.20
2022-11-30T07:26:28.857Z,12.17
2022-11-30T07:28:58.541Z,10.50
2022-11-30T07:31:34.339Z,11.87
2022-11-30T07:34:06.868Z,10.60
2022-11-30T07:36:36.350Z,10.43
2022-11-30T07:39:05.276Z,10.37
2022-11-30T07:41:34.648Z,9.97
2022-11-30T07:44:05.412Z,10.80
2022-11-30T07:46:35.922Z,10.77
2022-11-30T07:49:07.474Z,10.50
2022-11-30T07:51:37.294Z,11.03
2022-11-30T07:54:11.590Z,10.27
2022-11-30T07:56:43.433Z,9.80
2022-11-30T07:59:11.544Z,10.83
2022-11-30T08:01:45.351Z,12.10
2022-11-30T08:04:19.396Z,13.17
2022-11-30T08:06:50.701Z,13.20
2022-11-30T08:09:20.864Z,13.13
2022-11-30T08:11:51.460Z,13.03
2022-11-30T08:14:23.919Z,12.83
2022-11-30T08:16:53.339Z,12.07
2022-11-30T08:19:21.535Z,15.00
2022-11-30T08:21:52.186Z,12.30
2022-11-30T08:24:20.884Z,12.17
2022-11-30T08:26:55.947Z,12.50
2022-11-30T08:29:25.490Z,12.40
2022-11-30T08:31:54.854Z,13.10
2022-11-30T08:34:23.204Z,13.90
2022-11-30T08:36:52.246Z,13.50
2022-11-30T08:39:22.288Z,11.73
2022-11-30T08:41:52.089Z,12.30
2022-11-30T08:44:24.052Z,11.73
2022-11-30T08:46:53.359Z,12.60
2022-11-30T08:49:23.776Z,12.70
2022-11-30T08:54:45.214Z,12.40
2022-11-30T08:57:15.982Z,13.37
2022-11-30T08:59:50.033Z,12.30
2022-11-30T09:02:21.882Z,12.30
2022-11-30T09:04:51.718Z,11.33
2022-11-30T09:07:24.153Z,11.10
2022-11-30T09:09:53.722Z,11.50
2022-11-30T09:12:21.791Z,11.73
2022-11-30T09:14:58.089Z,11.33
2022-11-30T09:17:27.533Z,10.60
2022-11-30T09:19:55.997Z,11.30
2022-11-30T09:22:25.122Z,11.03
2022-11-30T09:24:52.972Z,12.07
2022-11-30T09:27:25.589Z,10.90
2022-11-30T09:29:58.152Z,12.00
2022-11-30T09:32:27.666Z,12.63
2022-11-30T09:34:56.504Z,11.93
2022-11-30T09:37:28.400Z,10.80
2022-11-30T09:39:58.025Z,10.70
2022-11-30T09:42:40.648Z,9.50
2022-11-30T09:45:18.332Z,9.97
2022-11-30T09:48:21.343Z,9.30
2022-11-30T09:50:52.233Z,10.30
2022-11-30T09:53:29.701Z,9.90
2022-11-30T09:56:03.230Z,10.40
2022-11-30T09:58:40.625Z,9.50
2022-11-30T10:01:19.687Z,9.87
2022-11-30T10:03:54.075Z,9.40
2022-11-30T10:06:35.983Z,10.77
2022-11-30T10:09:27.125Z,9.93
2022-11-30T10:12:03.246Z,10.00
2022-11-30T10:15:00.843Z,10.47
2022-11-30T10:17:40.763Z,10.03
2022-11-30T10:20:39.948Z,9.40
2022-11-30T10:23:33.120Z,9.80
2022-11-30T10:26:09.007Z,8.63
2022-11-30T10:28:48.347Z,8.40
2022-11-30T10:31:28.562Z,8.50
2022-11-30T10:34:04.759Z,9.60
2022-11-30T10:36:38.463Z,9.17
2022-11-30T10:39:15.440Z,10.37
2022-11-30T10:41:47.729Z,9.73
2022-11-30T10:44:23.175Z,8.63
2022-11-30T10:46:59.212Z,8.80
2022-11-30T10:49:33.044Z,8.93
2022-11-30T10:52:07.675Z,9.20
2022-11-30T10:54:37.457Z,9.10
2022-11-30T10:57:07.789Z,8.90
2022-11-30T10:59:45.115Z,9.70
2022-11-30T11:02:40.885Z,9.73
2022-11-30T11:05:18.398Z,8.80
2022-11-30T11:07:51.600Z,8.20
2022-11-30T11:10:27.005Z,8.10
2022-11-30T11:12:56.100Z,8.77
2022-11-30T11:15:29.229Z,8.27
2022-11-30T11:18:24.875Z,8.17
2022-11-30T11:21:06.733Z,8.10
2022-11-30T11:23:44.051Z,7.57
2022-11-30T11:26:19.194Z,8.10
2022-11-30T11:28:52.098Z,8.60
2022-11-30T11:31:35.408Z,8.53
2022-11-30T11:34:08.734Z,8.57
2022-11-30T11:36:38.623Z,8.53
2022-11-30T11:39:26.841Z,8.60
2022-11-30T11:41:55.596Z,8.27
2022-11-30T11:44:29.116Z,7.97
2022-11-30T11:47:02.980Z,7.73
2022-11-30T11:49:35.666Z,8.20
2022-11-30T11:52:19.010Z,7.47
2022-11-30T11:54:51.408Z,7.07
2022-11-30T11:57:28.760Z,7.60
2022-11-30T12:00:02.192Z,8.97
2022-11-30T12:02:37.958Z,8.27
2022-11-30T12:05:17.241Z,7.77
2022-11-30T12:07:58.708Z,8.73
2022-11-30T12:13:24.330Z,8.83
2022-11-30T12:16:04.781Z,7.87
2022-11-30T12:18:38.404Z,8.87
2022-11-30T12:21:15.491Z,9.10
2022-11-30T12:24:17.188Z,9.40
2022-11-30T12:26:54.982Z,7.80
2022-11-30T12:29:26.516Z,8.77
2022-11-30T12:32:17.582Z,8.23
2022-11-30T12:34:58.438Z,8.90
2022-11-30T12:37:41.809Z,8.73
2022-11-30T12:40:29.180Z,7.40
2022-11-30T12:43:08.409Z,7.60
2022-11-30T12:45:41.286Z,7.63
2022-11-30T12:48:22.760Z,7.90
2022-11-30T12:51:05.796Z,7.83
2022-11-30T12:53:39.936Z,7.40
2022-11-30T12:56:22.409Z,7.30
2022-11-30T12:59:02.483Z,7.60
2022-11-30T13:01:45.352Z,7.70
2022-11-30T13:04:20.884Z,7.90
2022-11-30T13:06:59.425Z,8.07
2022-11-30T13:09:32.588Z,8.60
2022-11-30T13:12:07.634Z,7.90
2022-11-30T13:14:37.810Z,7.80
2022-11-30T13:17:09.715Z,8.00
2022-11-30T13:19:55.968Z,8.77
2022-11-30T13:22:32.175Z,8.40
2022-11-30T13:25:09.915Z,8.23
2022-11-30T13:27:51.765Z,7.30
2022-11-30T13:30:31.382Z,8.63
2022-11-30T13:33:54.218Z,7.57
2022-11-30T13:36:28.457Z,7.37
2022-11-30T13:39:31.416Z,8.40
2022-11-30T13:42:34.266Z,7.37
2022-11-30T13:45:40.677Z,8.00
2022-11-30T13:48:21.701Z,7.90
2022-11-30T13:50:50.723Z,7.00
2022-11-30T13:53:27.188Z,8.43
2022-11-30T13:56:22.598Z,7.50
2022-11-30T13:59:29.055Z,5.73
2022-11-30T14:02:42.004Z,8.13
2022-11-30T14:05:39.279Z,7.47
2022-11-30T14:08:38.157Z,7.30
2022-11-30T14:11:41.893Z,6.70
2022-11-30T14:14:48.123Z,8.63
2022-11-30T14:17:24.160Z,7.17
2022-11-30T14:19:53.997Z,7.53
2022-11-30T14:22:26.675Z,7.80
2022-11-30T14:24:57.722Z,8.07
2022-11-30T14:27:30.203Z,7.23
2022-11-30T14:30:04.409Z,8.27
2022-11-30T14:32:40.147Z,7.53
2022-11-30T14:35:12.660Z,7.40
2022-11-30T14:37:45.986Z,7.13
2022-11-30T14:40:21.869Z,6.73
2022-11-30T14:42:54.236Z,7.70
2022-11-30T14:45:26.546Z,6.50
2022-11-30T14:48:07.096Z,6.70
2022-11-30T14:50:36.660Z,7.80
2022-11-30T14:53:22.446Z,6.40
2022-11-30T14:55:54.751Z,6.80
2022-11-30T14:58:32.282Z,7.77
2022-11-30T15:01:01.111Z,7.03
2022-11-30T15:03:40.261Z,6.70
2022-11-30T15:06:10.991Z,7.03
2022-11-30T15:08:43.779Z,6.47
2022-11-30T15:11:14.758Z,5.73
2022-11-30T15:13:44.634Z,5.70
2022-11-30T15:16:20.266Z,5.67
2022-11-30T15:18:50.917Z,5.77
2022-11-30T15:21:24.086Z,6.77
2022-11-30T15:23:53.049Z,7.17
2022-11-30T15:26:25.712Z,5.90
2022-11-30T15:29:00.174Z,5.73
2022-11-30T15:31:36.272Z,5.60
2022-11-30T15:34:09.368Z,4.87
2022-11-30T15:36:39.261Z,5.23
2022-11-30T15:39:17.052Z,5.20
2022-11-30T15:41:45.437Z,6.23
2022-11-30T15:44:37.878Z,5.30
2022-11-30T15:47:24.255Z,5.97
2022-11-30T15:49:55.700Z,5.70
2022-11-30T15:52:28.335Z,4.90
2022-11-30T15:54:58.823Z,5.60
2022-11-30T15:58:00.203Z,6.77
2022-11-30T16:00:29.984Z,5.53
2022-11-30T16:03:09.358Z,6.03
2022-11-30T16:05:39.939Z,6.20
2022-11-30T16:08:16.690Z,5.43
2022-11-30T16:10:44.847Z,5.90
2022-11-30T16:13:15.204Z,6.70
2022-11-30T16:15:46.800Z,6.30
2022-11-30T16:18:18.161Z,5.97
2022-11-30T16:20:51.074Z,5.37
2022-11-30T16:23:20.653Z,5.20
2022-11-30T16:25:51.141Z,5.73
2022-11-30T16:28:21.812Z,5.77
2022-11-30T16:30:52.752Z,5.97
2022-11-30T16:33:22.809Z,6.43
2022-11-30T16:35:57.024Z,6.47
2022-11-30T16:38:28.240Z,5.97
2022-11-30T16:41:23.980Z,5.73
2022-11-30T16:43:54.426Z,5.43
2022-11-30T16:46:24.306Z,5.77
2022-11-30T16:48:53.555Z,5.20
2022-11-30T16:51:25.815Z,5.90
2022-11-30T16:53:54.233Z,4.73
2022-11-30T16:56:25.585Z,5.50
2022-11-30T16:58:54.105Z,5.97
2022-11-30T17:01:35.164Z,5.80
2022-11-30T17:04:12.360Z,5.33
2022-11-30T17:06:42.340Z,5.53
2022-11-30T17:09:12.950Z,6.13
2022-11-30T17:11:42.036Z,5.20
2022-11-30T17:14:14.308Z,5.50
2022-11-30T17:16:42.848Z,5.83
2022-11-30T17:19:11.365Z,5.27
2022-11-30T17:21:42.167Z,5.50
2022-11-30T17:24:13.940Z,5.37
2022-11-30T17:26:42.988Z,5.10
2022-11-30T17:29:10.898Z,5.07
2022-11-30T17:31:39.496Z,5.50
2022-11-30T17:34:08.814Z,5.17
2022-11-30T17:36:36.816Z,4.80
2022-11-30T17:39:10.055Z,4.50
2022-11-30T17:41:42.135Z,4.30
2022-11-30T17:44:11.674Z,5.17
2022-11-30T17:46:48.025Z,5.37
2022-11-30T17:49:18.840Z,5.43
2022-11-30T17:51:49.765Z,5.17
2022-11-30T17:54:21.489Z,5.00
2022-11-30T17:56:55.357Z,4.50
2022-11-30T17:59:23.455Z,4.77
2022-11-30T18:01:52.075Z,5.73
2022-11-30T18:04:20.447Z,5.67
2022-11-30T18:06:49.443Z,4.80
2022-11-30T18:09:17.632Z,5.93
2022-11-30T18:11:47.416Z,5.17
2022-11-30T18:14:17.682Z,5.40
2022-11-30T18:16:46.641Z,5.83
2022-11-30T18:19:15.994Z,5.63
2022-11-30T18:21:45.242Z,5.90
2022-11-30T18:24:15.756Z,6.30
2022-11-30T18:26:45.219Z,5.97
2022-11-30T18:29:17.507Z,6.47
2022-11-30T18:31:48.634Z,5.70
2022-11-30T18:34:16.743Z,6.37
2022-11-30T18:36:44.927Z,5.73
2022-11-30T18:39:13.228Z,6.70
2022-11-30T18:41:44.066Z,6.47
2022-11-30T18:44:12.423Z,6.43
2022-11-30T18:46:42.428Z,7.10
2022-11-30T18:49:13.100Z,7.70
2022-11-30T18:51:41.798Z,7.93
2022-11-30T18:54:11.642Z,7.40
2022-11-30T18:56:41.875Z,7.97
2022-11-30T18:59:14.640Z,6.27
2022-11-30T19:01:48.151Z,8.10
2022-11-30T19:04:16.957Z,7.60
2022-11-30T19:06:48.740Z,7.47
2022-11-30T19:09:18.929Z,7.33
2022-11-30T19:11:47.622Z,7.80
2022-11-30T19:14:18.003Z,8.13
2022-11-30T19:16:50.420Z,7.43
2022-11-30T19:19:22.373Z,7.53
2022-11-30T19:21:53.214Z,6.90
2022-11-30T19:24:21.367Z,7.73
2022-11-30T19:26:53.500Z,7.73
2022-11-30T19:29:21.878Z,8.00
2022-11-30T19:31:51.301Z,7.30
2022-11-30T19:34:21.339Z,7.67
2022-11-30T19:36:49.746Z,6.33
2022-11-30T19:39:22.840Z,7.00
2022-11-30T19:41:51.086Z,7.30
2022-11-30T19:44:19.419Z,7.37
2022-11-30T19:46:48.230Z,7.73
2022-11-30T19:49:19.222Z,7.50
2022-11-30T19:51:50.053Z,8.10
2022-11-30T19:54:19.089Z,7.30
2022-11-30T19:56:47.855Z,8.70
2022-11-30T19:59:16.768Z,7.00
2022-11-30T20:01:45.241Z,7.50
2022-11-30T20:04:13.549Z,7.20
2022-11-30T20:06:42.958Z,9.00
2022-11-30T20:09:12.779Z,7.40
2022-11-30T20:11:42.526Z,7.20
2022-11-30T20:14:16.415Z,7.30
2022-11-30T20:16:46.686Z,7.53
2022-11-30T20:19:16.295Z,7.87
2022-11-30T20:21:48.704Z,7.77
2022-11-30T20:24:16.799Z,7.23
2022-11-30T20:26:46.165Z,7.57
2022-11-30T20:29:16.973Z,7.70
2022-11-30T20:31:48.071Z,9.10
2022-11-30T20:34:16.963Z,8.80
2022-11-30T20:36:46.584Z,8.93
2022-11-30T20:39:17.680Z,9.30
2022-11-30T20:41:48.756Z,9.90
2022-11-30T20:44:16.893Z,9.57
2022-11-30T20:46:45.118Z,8.70
2022-11-30T20:49:19.089Z,12.13
2022-11-30T20:51:51.428Z,11.50
2022-11-30T20:54:22.217Z,11.00
2022-11-30T20:56:51.245Z,10.90
2022-11-30T20:59:26.102Z,9.93
2022-11-30T21:01:55.958Z,9.37
2022-11-30T21:04:26.735Z,8.97
2022-11-30T21:06:57.039Z,8.90
2022-11-30T21:09:27.911Z,9.10
2022-11-30T21:11:56.887Z,10.27
2022-11-30T21:14:25.061Z,9.73
2022-11-30T21:16:54.262Z,10.57
2022-11-30T21:19:22.378Z,9.43
2022-11-30T21:21:50.446Z,8.93
2022-11-30T21:24:23.479Z,9.07
2022-11-30T21:26:51.805Z,9.27
2022-11-30T21:29:20.173Z,9.00
2022-11-30T21:31:48.509Z,8.97
2022-11-30T21:34:17.568Z,8.50
2022-11-30T21:36:46.219Z,9.13
2022-11-30T21:39:16.077Z,9.07
2022-11-30T21:41:45.782Z,9.43
2022-11-30T21:44:17.831Z,9.00
2022-11-30T21:46:47.978Z,9.50
2022-11-30T21:49:17.194Z,9.10
2022-11-30T21:51:45.674Z,8.63
2022-11-30T21:54:16.663Z,9.10
2022-11-30T21:56:46.250Z,9.17
2022-11-30T21:59:17.533Z,9.50
2022-11-30T22:01:48.732Z,10.47
2022-11-30T22:04:17.504Z,9.90
2022-11-30T22:06:46.384Z,9.50
2022-11-30T22:09:17.506Z,8.60
2022-11-30T22:11:47.512Z,9.67
2022-11-30T22:14:17.724Z,8.37
2022-11-30T22:16:46.471Z,9.23
2022-11-30T22:19:18.940Z,9.17
2022-11-30T22:21:50.447Z,9.73
2022-11-30T22:24:18.827Z,9.30
2022-11-30T22:26:51.859Z,8.93
2022-11-30T22:29:22.235Z,9.33
2022-11-30T22:31:54.428Z,10.70
2022-11-30T22:34:22.403Z,9.37
2022-11-30T22:36:51.316Z,10.47
2022-11-30T22:39:22.079Z,10.60
2022-11-30T22:41:56.147Z,11.30
2022-11-30T22:44:27.189Z,11.00
2022-11-30T22:46:55.713Z,10.60
2022-11-30T22:49:28.280Z,10.70
2022-11-30T22:51:57.939Z,10.20
2022-11-30T22:54:29.993Z,10.70
2022-11-30T22:57:01.978Z,10.47
2022-11-30T22:59:31.247Z,9.53
2022-11-30T23:02:00.335Z,10.23
2022-11-30T23:04:28.552Z,11.33
2022-11-30T23:06:57.875Z,11.70
2022-11-30T23:09:26.329Z,12.90
2022-11-30T23:11:55.643Z,13.60
2022-11-30T23:14:25.114Z,14.60
2022-11-30T23:16:53.512Z,13.10
2022-11-30T23:19:21.713Z,13.50
2022-11-30T23:21:51.016Z,13.73
2022-11-30T23:24:23.904Z,13.70
2022-11-30T23:26:52.032Z,14.30
2022-11-30T23:29:21.518Z,14.00
2022-11-30T23:31:51.113Z,14.50
2022-11-30T23:34:21.689Z,14.63
2022-11-30T23:36:51.356Z,14.47
2022-11-30T23:39:22.478Z,14.30
2022-11-30T23:41:51.154Z,15.50
2022-11-30T23:44:19.694Z,14.80
2022-11-30T23:46:51.105Z,15.23
2022-11-30T23:49:19.087Z,15.93
2022-11-30T23:51:49.228Z,13.47
2022-11-30T23:54:17.736Z,15.27
2022-11-30T23:56:53.184Z,15.40
2022-11-30T23:59:22.174Z,13.20
